createdAt,value
2018-10-21T00:00:25.750Z,824.06
2018-10-21T00:01:25.764Z,824.04
2018-10-21T00:02:25.845Z,824.03
2018-10-21T00:03:25.795Z,824.03
2018-10-21T00:04:25.814Z,824.02
2018-10-21T00:05:25.824Z,824.00
2018-10-21T00:06:25.841Z,824.04
2018-10-21T00:07:25.853Z,824.00
2018-10-21T00:08:25.869Z,823.95
2018-10-21T00:09:25.884Z,823.99
2018-10-21T00:10:25.903Z,823.96
2018-10-21T00:11:25.914Z,824.01
2018-10-21T00:12:25.931Z,823.96
2018-10-21T00:13:25.947Z,823.95
2018-10-21T00:14:25.957Z,823.94
2018-10-21T00:15:26.169Z,823.93
2018-10-21T00:16:25.988Z,823.91
2018-10-21T00:17:26.003Z,823.97
2018-10-21T00:18:26.018Z,823.92
2018-10-21T00:19:26.037Z,823.92
2018-10-21T00:20:26.049Z,823.95
2018-10-21T00:21:26.064Z,823.95
2018-10-21T00:22:26.080Z,823.97
2018-10-21T00:23:26.093Z,823.95
2018-10-21T00:24:26.109Z,823.95
2018-10-21T00:25:26.125Z,823.98
2018-10-21T00:26:26.137Z,823.96
2018-10-21T00:27:26.152Z,823.97
2018-10-21T00:28:26.167Z,823.96
2018-10-21T00:29:26.181Z,823.95
2018-10-21T00:30:26.195Z,823.95
2018-10-21T00:31:26.214Z,823.95
2018-10-21T00:32:26.232Z,823.97
2018-10-21T00:33:26.246Z,823.93
2018-10-21T00:34:26.257Z,823.95
2018-10-21T00:35:26.271Z,823.90
2018-10-21T00:36:26.286Z,823.92
2018-10-21T00:37:26.300Z,823.90
2018-10-21T00:38:26.314Z,823.87
2018-10-21T00:39:26.329Z,823.84
2018-10-21T00:40:26.345Z,823.84
2018-10-21T00:41:26.362Z,823.84
2018-10-21T00:42:26.374Z,823.80
2018-10-21T00:43:26.389Z,823.84
2018-10-21T00:44:26.405Z,823.83
2018-10-21T00:45:26.421Z,823.83
2018-10-21T00:46:26.434Z,823.80
2018-10-21T00:47:26.449Z,823.79
2018-10-21T00:48:26.519Z,823.77
2018-10-21T00:49:26.480Z,823.82
2018-10-21T00:50:26.494Z,823.78
2018-10-21T00:51:26.508Z,823.76
2018-10-21T00:52:26.523Z,823.76
2018-10-21T00:53:26.538Z,823.75
2018-10-21T00:54:26.550Z,823.76
2018-10-21T00:55:26.567Z,823.75
2018-10-21T00:56:26.582Z,823.72
2018-10-21T00:57:26.597Z,823.69
2018-10-21T00:58:26.610Z,823.72
2018-10-21T00:59:26.626Z,823.73
2018-10-21T01:00:26.640Z,823.74
2018-10-21T01:01:26.658Z,823.72
2018-10-21T01:02:26.670Z,823.73
2018-10-21T01:03:26.684Z,823.74
2018-10-21T01:04:26.701Z,823.70
2018-10-21T01:05:26.714Z,823.67
2018-10-21T01:06:26.731Z,823.69
2018-10-21T01:07:26.745Z,823.69
2018-10-21T01:08:26.762Z,823.69
2018-10-21T01:09:26.780Z,823.64
2018-10-21T01:10:26.787Z,823.64
2018-10-21T01:11:26.805Z,823.61
2018-10-21T01:12:26.818Z,823.65
2018-10-21T01:13:26.831Z,823.59
2018-10-21T01:14:26.846Z,823.62
2018-10-21T01:15:26.861Z,823.60
2018-10-21T01:16:26.878Z,823.60
2018-10-21T01:17:26.900Z,823.64
2018-10-21T01:18:26.906Z,823.60
2018-10-21T01:19:26.921Z,823.60
2018-10-21T01:20:26.938Z,823.57
2018-10-21T01:21:26.949Z,823.61
2018-10-21T01:22:26.965Z,823.57
2018-10-21T01:23:26.982Z,823.59
2018-10-21T01:24:26.993Z,823.59
2018-10-21T01:25:27.011Z,823.58
2018-10-21T01:26:27.027Z,823.59
2018-10-21T01:27:27.037Z,823.52
2018-10-21T01:28:27.052Z,823.56
2018-10-21T01:29:27.068Z,823.51
2018-10-21T01:30:27.082Z,823.48
2018-10-21T01:31:27.097Z,823.49
2018-10-21T01:32:27.111Z,823.47
2018-10-21T01:33:27.127Z,823.46
2018-10-21T01:34:27.141Z,823.45
2018-10-21T01:35:27.158Z,823.46
2018-10-21T01:36:27.280Z,823.45
2018-10-21T01:37:27.229Z,823.44
2018-10-21T01:38:27.211Z,823.41
2018-10-21T01:39:27.215Z,823.38
2018-10-21T01:40:27.232Z,823.37
2018-10-21T01:41:27.244Z,823.38
2018-10-21T01:42:27.260Z,823.38
2018-10-21T01:43:27.273Z,823.37
2018-10-21T01:44:27.290Z,823.34
2018-10-21T01:45:27.304Z,823.40
2018-10-21T01:46:27.317Z,823.34
2018-10-21T01:47:27.334Z,823.35
2018-10-21T01:48:27.347Z,823.31
2018-10-21T01:49:27.362Z,823.35
2018-10-21T01:50:27.381Z,823.35
2018-10-21T01:51:27.400Z,823.35
2018-10-21T01:52:27.434Z,823.34
2018-10-21T01:53:27.420Z,823.34
2018-10-21T01:54:27.436Z,823.34
2018-10-21T01:55:27.449Z,823.32
2018-10-21T01:56:27.465Z,823.30
2018-10-21T01:57:27.480Z,823.31
2018-10-21T01:58:27.494Z,823.30
2018-10-21T01:59:27.512Z,823.31
2018-10-21T02:00:27.524Z,823.31
2018-10-21T02:01:27.538Z,823.28
2018-10-21T02:02:27.552Z,823.28
2018-10-21T02:03:27.567Z,823.29
2018-10-21T02:04:27.583Z,823.27
2018-10-21T02:05:27.597Z,823.25
2018-10-21T02:06:27.611Z,823.29
2018-10-21T02:07:27.626Z,823.28
2018-10-21T02:08:27.641Z,823.26
2018-10-21T02:09:27.657Z,823.26
2018-10-21T02:10:27.669Z,823.25
2018-10-21T02:11:27.687Z,823.21
2018-10-21T02:12:27.700Z,823.24
2018-10-21T02:13:27.714Z,823.21
2018-10-21T02:14:27.732Z,823.16
2018-10-21T02:15:27.747Z,823.17
2018-10-21T02:16:27.761Z,823.22
2018-10-21T02:17:27.776Z,823.16
2018-10-21T02:18:27.805Z,823.16
2018-10-21T02:19:27.805Z,823.17
2018-10-21T02:20:27.816Z,823.21
2018-10-21T02:21:27.835Z,823.20
2018-10-21T02:22:27.847Z,823.14
2018-10-21T02:23:27.861Z,823.15
2018-10-21T02:24:27.875Z,823.11
2018-10-21T02:25:27.890Z,823.16
2018-10-21T02:26:28.081Z,823.12
2018-10-21T02:27:27.923Z,823.13
2018-10-21T02:28:27.945Z,823.09
2018-10-21T02:29:27.949Z,823.04
2018-10-21T02:30:27.962Z,823.06
2018-10-21T02:31:27.978Z,823.05
2018-10-21T02:32:27.993Z,823.08
2018-10-21T02:33:28.156Z,823.06
2018-10-21T02:34:28.021Z,823.05
2018-10-21T02:35:28.035Z,823.06
2018-10-21T02:36:28.051Z,823.07
2018-10-21T02:37:28.066Z,823.05
2018-10-21T02:38:28.082Z,823.06
2018-10-21T02:39:28.098Z,823.09
2018-10-21T02:40:28.109Z,823.05
2018-10-21T02:41:28.123Z,823.02
2018-10-21T02:42:28.136Z,823.01
2018-10-21T02:43:28.155Z,822.99
2018-10-21T02:44:28.167Z,823.00
2018-10-21T02:45:28.186Z,822.95
2018-10-21T02:46:28.196Z,822.97
2018-10-21T02:47:28.210Z,822.97
2018-10-21T02:48:28.225Z,822.97
2018-10-21T02:49:28.242Z,822.95
2018-10-21T02:50:28.258Z,822.94
2018-10-21T02:51:28.268Z,822.90
2018-10-21T02:52:28.285Z,822.91
2018-10-21T02:53:28.300Z,822.96
2018-10-21T02:54:28.313Z,822.90
2018-10-21T02:55:28.330Z,822.88
2018-10-21T02:56:28.343Z,822.88
2018-10-21T02:57:28.357Z,822.88
2018-10-21T02:58:28.371Z,822.90
2018-10-21T02:59:28.387Z,822.90
2018-10-21T03:00:28.400Z,822.92
2018-10-21T03:01:28.414Z,822.88
2018-10-21T03:02:28.428Z,822.86
2018-10-21T03:03:28.444Z,822.91
2018-10-21T03:04:28.457Z,822.86
2018-10-21T03:05:28.473Z,822.86
2018-10-21T03:06:28.486Z,822.87
2018-10-21T03:07:28.501Z,822.84
2018-10-21T03:08:28.517Z,822.86
2018-10-21T03:09:28.530Z,822.83
2018-10-21T03:10:28.543Z,822.86
2018-10-21T03:11:28.558Z,822.85
2018-10-21T03:12:28.573Z,822.85
2018-10-21T03:13:28.590Z,822.81
2018-10-21T03:14:28.601Z,822.79
2018-10-21T03:15:28.617Z,822.81
2018-10-21T03:16:28.632Z,822.81
2018-10-21T03:17:28.646Z,822.79
2018-10-21T03:18:28.687Z,822.80
2018-10-21T03:19:28.673Z,822.81
2018-10-21T03:20:28.688Z,822.79
2018-10-21T03:21:28.703Z,822.76
2018-10-21T03:22:28.721Z,822.74
2018-10-21T03:23:28.735Z,822.72
2018-10-21T03:24:28.748Z,822.71
2018-10-21T03:25:28.763Z,822.73
2018-10-21T03:26:28.775Z,822.72
2018-10-21T03:27:28.792Z,822.72
2018-10-21T03:28:28.807Z,822.72
2018-10-21T03:29:28.820Z,822.74
2018-10-21T03:30:28.833Z,822.73
2018-10-21T03:31:28.845Z,822.74
2018-10-21T03:32:28.860Z,822.78
2018-10-21T03:33:29.001Z,822.78
2018-10-21T03:34:28.889Z,822.79
2018-10-21T03:35:28.908Z,822.77
2018-10-21T03:36:28.918Z,822.72
2018-10-21T03:37:28.932Z,822.75
2018-10-21T03:38:28.945Z,822.74
2018-10-21T03:39:28.961Z,822.74
2018-10-21T03:40:28.973Z,822.75
2018-10-21T03:41:28.989Z,822.72
2018-10-21T03:42:29.002Z,822.76
2018-10-21T03:43:29.016Z,822.73
2018-10-21T03:44:29.031Z,822.76
2018-10-21T03:45:29.044Z,822.74
2018-10-21T03:46:29.059Z,822.74
2018-10-21T03:47:29.074Z,822.74
2018-10-21T03:48:29.088Z,822.77
2018-10-21T03:49:29.102Z,822.78
2018-10-21T03:50:29.115Z,822.80
2018-10-21T03:51:29.129Z,822.79
2018-10-21T03:52:29.143Z,822.80
2018-10-21T03:53:29.158Z,822.77
2018-10-21T03:54:29.173Z,822.82
2018-10-21T03:55:29.186Z,822.81
2018-10-21T03:56:29.201Z,822.77
2018-10-21T03:57:29.215Z,822.78
2018-10-21T03:58:29.234Z,822.79
2018-10-21T03:59:29.244Z,822.75
2018-10-21T04:00:29.258Z,822.73
2018-10-21T04:01:29.274Z,822.73
2018-10-21T04:02:29.286Z,822.75
2018-10-21T04:03:29.303Z,822.72
2018-10-21T04:04:29.315Z,822.72
2018-10-21T04:05:29.331Z,822.72
2018-10-21T04:06:29.349Z,822.69
2018-10-21T04:07:29.358Z,822.67
2018-10-21T04:08:29.372Z,822.70
2018-10-21T04:09:29.395Z,822.71
2018-10-21T04:10:29.403Z,822.72
2018-10-21T04:11:29.415Z,822.66
2018-10-21T04:12:29.429Z,822.72
2018-10-21T04:13:29.444Z,822.68
2018-10-21T04:14:29.460Z,822.69
2018-10-21T04:15:29.477Z,822.69
2018-10-21T04:16:29.488Z,822.71
2018-10-21T04:17:29.503Z,822.70
2018-10-21T04:18:29.517Z,822.71
2018-10-21T04:19:29.530Z,822.73
2018-10-21T04:20:29.552Z,822.74
2018-10-21T04:21:29.558Z,822.74
2018-10-21T04:22:29.570Z,822.70
2018-10-21T04:23:29.584Z,822.68
2018-10-21T04:24:29.599Z,822.65
2018-10-21T04:25:29.614Z,822.64
2018-10-21T04:26:29.626Z,822.64
2018-10-21T04:27:29.642Z,822.63
2018-10-21T04:28:29.657Z,822.62
2018-10-21T04:29:29.670Z,822.60
2018-10-21T04:30:29.686Z,822.60
2018-10-21T04:31:29.701Z,822.51
2018-10-21T04:32:29.713Z,822.54
2018-10-21T04:33:29.730Z,822.55
2018-10-21T04:34:29.764Z,822.47
2018-10-21T04:35:29.914Z,822.50
2018-10-21T04:36:29.769Z,822.47
2018-10-21T04:37:29.783Z,822.48
2018-10-21T04:38:29.800Z,822.47
2018-10-21T04:39:29.810Z,822.46
2018-10-21T04:40:29.826Z,822.46
2018-10-21T04:41:29.839Z,822.47
2018-10-21T04:42:29.853Z,822.45
2018-10-21T04:43:29.869Z,822.45
2018-10-21T04:44:29.882Z,822.44
2018-10-21T04:45:29.895Z,822.44
2018-10-21T04:46:29.995Z,822.42
2018-10-21T04:47:29.925Z,822.44
2018-10-21T04:48:29.938Z,822.39
2018-10-21T04:49:29.954Z,822.42
2018-10-21T04:50:29.966Z,822.44
2018-10-21T04:51:29.980Z,822.39
2018-10-21T04:52:29.996Z,822.45
2018-10-21T04:53:30.017Z,822.42
2018-10-21T04:54:30.023Z,822.42
2018-10-21T04:55:30.037Z,822.42
2018-10-21T04:56:30.051Z,822.37
2018-10-21T04:57:30.067Z,822.39
2018-10-21T04:58:30.081Z,822.37
2018-10-21T04:59:30.096Z,822.37
2018-10-21T05:00:30.123Z,822.34
2018-10-21T05:01:30.125Z,822.34
2018-10-21T05:02:30.138Z,822.33
2018-10-21T05:03:30.151Z,822.29
2018-10-21T05:04:30.167Z,822.34
2018-10-21T05:05:30.179Z,822.28
2018-10-21T05:06:30.193Z,822.29
2018-10-21T05:07:30.226Z,822.29
2018-10-21T05:08:30.221Z,822.30
2018-10-21T05:09:30.235Z,822.30
2018-10-21T05:10:30.250Z,822.30
2018-10-21T05:11:30.264Z,822.27
2018-10-21T05:12:30.278Z,822.31
2018-10-21T05:13:30.292Z,822.28
2018-10-21T05:14:30.304Z,822.25
2018-10-21T05:15:30.331Z,822.23
2018-10-21T05:16:30.341Z,822.24
2018-10-21T05:17:30.347Z,822.21
2018-10-21T05:18:30.361Z,822.22
2018-10-21T05:19:30.377Z,822.18
2018-10-21T05:20:30.390Z,822.19
2018-10-21T05:21:30.404Z,822.23
2018-10-21T05:22:30.460Z,822.19
2018-10-21T05:23:30.431Z,822.21
2018-10-21T05:24:30.445Z,822.21
2018-10-21T05:25:30.460Z,822.20
2018-10-21T05:26:30.474Z,822.19
2018-10-21T05:27:30.489Z,822.20
2018-10-21T05:28:30.502Z,822.22
2018-10-21T05:29:30.516Z,822.24
2018-10-21T05:30:30.529Z,822.22
2018-10-21T05:31:30.545Z,822.19
2018-10-21T05:32:30.559Z,822.22
2018-10-21T05:33:30.572Z,822.25
2018-10-21T05:34:30.586Z,822.23
2018-10-21T05:35:30.600Z,822.22
2018-10-21T05:36:30.616Z,822.24
2018-10-21T05:37:30.629Z,822.23
2018-10-21T05:38:30.641Z,822.21
2018-10-21T05:39:30.657Z,822.18
2018-10-21T05:40:30.700Z,822.21
2018-10-21T05:41:30.684Z,822.18
2018-10-21T05:42:30.698Z,822.20
2018-10-21T05:43:30.714Z,822.19
2018-10-21T05:44:30.753Z,822.19
2018-10-21T05:45:30.744Z,822.18
2018-10-21T05:46:30.757Z,822.21
2018-10-21T05:47:30.768Z,822.18
2018-10-21T05:48:30.784Z,822.21
2018-10-21T05:49:30.800Z,822.16
2018-10-21T05:50:30.809Z,822.16
2018-10-21T05:51:30.824Z,822.16
2018-10-21T05:52:30.840Z,822.17
2018-10-21T05:53:30.854Z,822.22
2018-10-21T05:54:30.866Z,822.18
2018-10-21T05:55:30.882Z,822.19
2018-10-21T05:56:30.896Z,822.24
2018-10-21T05:57:30.912Z,822.20
2018-10-21T05:58:30.990Z,822.21
2018-10-21T05:59:30.939Z,822.24
2018-10-21T06:00:30.953Z,822.24
2018-10-21T06:01:30.967Z,822.23
2018-10-21T06:02:30.980Z,822.28
2018-10-21T06:03:30.998Z,822.27
2018-10-21T06:04:31.011Z,822.30
2018-10-21T06:05:31.026Z,822.28
2018-10-21T06:06:31.039Z,822.29
2018-10-21T06:07:31.051Z,822.29
2018-10-21T06:08:31.072Z,822.28
2018-10-21T06:09:31.081Z,822.31
2018-10-21T06:10:31.094Z,822.29
2018-10-21T06:11:31.108Z,822.28
2018-10-21T06:12:31.122Z,822.23
2018-10-21T06:13:31.137Z,822.26
2018-10-21T06:14:31.152Z,822.25
2018-10-21T06:15:31.164Z,822.21
2018-10-21T06:16:31.180Z,822.25
2018-10-21T06:17:31.194Z,822.27
2018-10-21T06:18:31.208Z,822.21
2018-10-21T06:19:31.221Z,822.27
2018-10-21T06:20:31.236Z,822.24
2018-10-21T06:21:31.251Z,822.29
2018-10-21T06:22:31.263Z,822.29
2018-10-21T06:23:31.332Z,822.29
2018-10-21T06:24:31.291Z,822.32
2018-10-21T06:25:31.305Z,822.29
2018-10-21T06:26:31.322Z,822.27
2018-10-21T06:27:31.350Z,822.31
2018-10-21T06:28:31.348Z,822.33
2018-10-21T06:29:31.360Z,822.31
2018-10-21T06:30:31.375Z,822.33
2018-10-21T06:31:31.390Z,822.33
2018-10-21T06:32:31.404Z,822.36
2018-10-21T06:33:31.466Z,822.37
2018-10-21T06:34:31.430Z,822.40
2018-10-21T06:35:31.445Z,822.40
2018-10-21T06:36:31.470Z,822.40
2018-10-21T06:37:31.480Z,822.44
2018-10-21T06:38:31.487Z,822.47
2018-10-21T06:39:31.502Z,822.48
2018-10-21T06:40:31.517Z,822.50
2018-10-21T06:41:31.532Z,822.47
2018-10-21T06:42:31.546Z,822.48
2018-10-21T06:43:31.558Z,822.47
2018-10-21T06:44:31.572Z,822.48
2018-10-21T06:45:31.618Z,822.43
2018-10-21T06:46:31.600Z,822.46
2018-10-21T06:47:31.618Z,822.46
2018-10-21T06:48:31.713Z,822.47
2018-10-21T06:49:31.644Z,822.46
2018-10-21T06:50:31.659Z,822.44
2018-10-21T06:51:31.670Z,822.46
2018-10-21T06:52:31.684Z,822.48
2018-10-21T06:53:31.699Z,822.48
2018-10-21T06:54:31.713Z,822.49
2018-10-21T06:55:31.730Z,822.51
2018-10-21T06:56:31.855Z,822.53
2018-10-21T06:57:31.944Z,822.50
2018-10-21T06:58:31.770Z,822.53
2018-10-21T06:59:31.785Z,822.50
2018-10-21T07:00:31.799Z,822.50
2018-10-21T07:01:31.815Z,822.50
2018-10-21T07:02:31.827Z,822.50
2018-10-21T07:03:31.844Z,822.52
2018-10-21T07:04:31.951Z,822.49
2018-10-21T07:05:31.872Z,822.53
2018-10-21T07:06:31.886Z,822.50
2018-10-21T07:07:31.899Z,822.49
2018-10-21T07:08:31.916Z,822.50
2018-10-21T07:09:31.928Z,822.54
2018-10-21T07:10:31.942Z,822.50
2018-10-21T07:11:31.956Z,822.54
2018-10-21T07:12:31.971Z,822.56
2018-10-21T07:13:31.986Z,822.52
2018-10-21T07:14:32.001Z,822.51
2018-10-21T07:15:32.042Z,822.48
2018-10-21T07:16:32.146Z,822.52
2018-10-21T07:17:32.046Z,822.52
2018-10-21T07:18:32.058Z,822.52
2018-10-21T07:19:32.073Z,822.54
2018-10-21T07:20:32.090Z,822.59
2018-10-21T07:21:32.105Z,822.55
2018-10-21T07:22:32.117Z,822.55
2018-10-21T07:23:32.130Z,822.57
2018-10-21T07:24:32.146Z,822.60
2018-10-21T07:25:32.162Z,822.54
2018-10-21T07:26:32.176Z,822.52
2018-10-21T07:27:32.205Z,822.54
2018-10-21T07:28:32.298Z,822.57
2018-10-21T07:29:32.220Z,822.56
2018-10-21T07:30:32.236Z,822.50
2018-10-21T07:31:32.249Z,822.49
2018-10-21T07:32:32.266Z,822.50
2018-10-21T07:33:32.279Z,822.51
2018-10-21T07:34:32.292Z,822.48
2018-10-21T07:35:32.307Z,822.48
2018-10-21T07:36:32.386Z,822.46
2018-10-21T07:37:32.336Z,822.47
2018-10-21T07:38:32.350Z,822.49
2018-10-21T07:39:32.367Z,822.46
2018-10-21T07:40:32.380Z,822.45
2018-10-21T07:41:32.395Z,822.49
2018-10-21T07:42:32.411Z,822.53
2018-10-21T07:43:32.423Z,822.52
2018-10-21T07:44:32.438Z,822.46
2018-10-21T07:45:32.457Z,822.47
2018-10-21T07:46:32.470Z,822.48
2018-10-21T07:47:32.484Z,822.49
2018-10-21T07:48:32.502Z,822.49
2018-10-21T07:49:32.517Z,822.49
2018-10-21T07:50:32.526Z,822.45
2018-10-21T07:51:32.545Z,822.43
2018-10-21T07:52:32.557Z,822.46
2018-10-21T07:53:32.572Z,822.45
2018-10-21T07:54:32.588Z,822.41
2018-10-21T07:55:32.615Z,822.41
2018-10-21T07:56:32.618Z,822.42
2018-10-21T07:57:32.636Z,822.43
2018-10-21T07:58:32.646Z,822.46
2018-10-21T07:59:32.664Z,822.46
2018-10-21T08:00:32.676Z,822.45
2018-10-21T08:01:32.781Z,822.46
2018-10-21T08:02:32.709Z,822.45
2018-10-21T08:03:32.723Z,822.44
2018-10-21T08:04:32.738Z,822.41
2018-10-21T08:05:32.753Z,822.45
2018-10-21T08:06:32.768Z,822.40
2018-10-21T08:07:32.783Z,822.38
2018-10-21T08:08:32.809Z,822.40
2018-10-21T08:09:32.812Z,822.43
2018-10-21T08:10:32.828Z,822.42
2018-10-21T08:11:32.842Z,822.39
2018-10-21T08:12:32.858Z,822.39
2018-10-21T08:13:32.873Z,822.38
2018-10-21T08:14:32.914Z,822.38
2018-10-21T08:15:32.904Z,822.42
2018-10-21T08:16:32.920Z,822.42
2018-10-21T08:17:32.933Z,822.40
2018-10-21T08:18:32.948Z,822.38
2018-10-21T08:19:32.961Z,822.40
2018-10-21T08:20:32.978Z,822.44
2018-10-21T08:21:32.993Z,822.36
2018-10-21T08:22:33.008Z,822.39
2018-10-21T08:23:33.023Z,822.38
2018-10-21T08:24:33.042Z,822.37
2018-10-21T08:25:33.055Z,822.38
2018-10-21T08:26:33.068Z,822.38
2018-10-21T08:27:33.083Z,822.40
2018-10-21T08:28:33.100Z,822.39
2018-10-21T08:29:33.116Z,822.35
2018-10-21T08:30:33.128Z,822.35
2018-10-21T08:31:33.146Z,822.36
2018-10-21T08:32:33.161Z,822.35
2018-10-21T08:33:33.177Z,822.34
2018-10-21T08:34:33.194Z,822.32
2018-10-21T08:35:33.207Z,822.34
2018-10-21T08:36:33.224Z,822.33
2018-10-21T08:37:33.240Z,822.36
2018-10-21T08:38:33.253Z,822.37
2018-10-21T08:39:33.271Z,822.34
2018-10-21T08:40:33.284Z,822.34
2018-10-21T08:41:33.302Z,822.36
2018-10-21T08:42:33.316Z,822.34
2018-10-21T08:43:33.330Z,822.31
2018-10-21T08:44:33.347Z,822.29
2018-10-21T08:45:33.366Z,822.27
2018-10-21T08:46:33.438Z,822.25
2018-10-21T08:47:33.394Z,822.24
2018-10-21T08:48:33.409Z,822.22
2018-10-21T08:49:33.427Z,822.21
2018-10-21T08:50:33.443Z,822.23
2018-10-21T08:51:33.456Z,822.21
2018-10-21T08:52:33.472Z,822.18
2018-10-21T08:53:33.492Z,822.18
2018-10-21T08:54:33.506Z,822.20
2018-10-21T08:55:33.519Z,822.15
2018-10-21T08:56:33.543Z,822.18
2018-10-21T08:57:33.552Z,822.15
2018-10-21T08:58:33.568Z,822.11
2018-10-21T08:59:33.581Z,822.08
2018-10-21T09:00:33.599Z,822.09
2018-10-21T09:01:33.619Z,822.08
2018-10-21T09:02:33.636Z,822.13
2018-10-21T09:03:33.651Z,822.18
2018-10-21T09:04:33.669Z,822.13
2018-10-21T09:05:33.680Z,822.11
2018-10-21T09:06:33.695Z,822.14
2018-10-21T09:07:33.712Z,822.11
2018-10-21T09:08:33.732Z,822.11
2018-10-21T09:09:33.746Z,822.13
2018-10-21T09:10:33.892Z,822.13
2018-10-21T09:11:33.777Z,822.14
2018-10-21T09:12:33.794Z,822.09
2018-10-21T09:13:33.811Z,822.16
2018-10-21T09:14:33.827Z,822.13
2018-10-21T09:15:33.924Z,822.14
2018-10-21T09:16:33.877Z,822.13
2018-10-21T09:17:33.879Z,822.15
2018-10-21T09:18:33.895Z,822.11
2018-10-21T09:19:33.911Z,822.11
2018-10-21T09:20:33.927Z,822.08
2018-10-21T09:21:33.943Z,822.07
2018-10-21T09:22:33.963Z,822.04
2018-10-21T09:23:34.013Z,822.06
2018-10-21T09:24:33.997Z,822.03
2018-10-21T09:25:34.013Z,822.07
2018-10-21T09:26:34.030Z,822.05
2018-10-21T09:27:34.047Z,822.08
2018-10-21T09:28:34.062Z,822.08
2018-10-21T09:29:34.083Z,822.10
2018-10-21T09:30:34.096Z,822.09
2018-10-21T09:31:34.115Z,822.07
2018-10-21T09:32:34.132Z,822.06
2018-10-21T09:33:34.151Z,822.04
2018-10-21T09:34:34.166Z,822.03
2018-10-21T09:35:34.185Z,822.03
2018-10-21T09:36:34.201Z,822.03
2018-10-21T09:37:34.219Z,822.01
2018-10-21T09:38:34.244Z,822.05
2018-10-21T09:39:34.255Z,822.07
2018-10-21T09:40:34.273Z,822.01
2018-10-21T09:41:34.288Z,822.03
2018-10-21T09:42:34.306Z,822.02
2018-10-21T09:43:34.325Z,822.00
2018-10-21T09:44:34.341Z,822.00
2018-10-21T09:45:34.360Z,821.99
2018-10-21T09:46:34.447Z,821.95
2018-10-21T09:47:34.396Z,821.95
2018-10-21T09:48:34.414Z,821.94
2018-10-21T09:49:34.431Z,821.96
2018-10-21T09:50:34.449Z,821.97
2018-10-21T09:51:34.465Z,822.01
2018-10-21T09:52:34.485Z,822.03
2018-10-21T09:53:34.506Z,821.98
2018-10-21T09:54:34.522Z,822.01
2018-10-21T09:55:34.537Z,822.01
2018-10-21T09:56:34.560Z,821.99
2018-10-21T09:57:34.576Z,822.00
2018-10-21T09:58:34.618Z,821.98
2018-10-21T09:59:34.608Z,822.01
2018-10-21T10:00:34.634Z,821.97
2018-10-21T10:01:34.647Z,821.96
2018-10-21T10:02:34.665Z,821.96
2018-10-21T10:03:34.683Z,821.95
2018-10-21T10:04:34.709Z,821.92
2018-10-21T10:05:34.722Z,821.90
2018-10-21T10:06:34.740Z,821.90
2018-10-21T10:07:34.760Z,821.91
2018-10-21T10:08:34.777Z,821.87
2018-10-21T10:09:34.796Z,821.86
2018-10-21T10:10:34.841Z,821.81
2018-10-21T10:11:34.830Z,821.84
2018-10-21T10:12:34.847Z,821.81
2018-10-21T10:13:34.867Z,821.85
2018-10-21T10:14:34.888Z,821.85
2018-10-21T10:15:34.905Z,821.80
2018-10-21T10:16:34.923Z,821.79
2018-10-21T10:17:34.966Z,821.83
2018-10-21T10:18:34.961Z,821.78
2018-10-21T10:19:34.982Z,821.78
2018-10-21T10:20:34.998Z,821.78
2018-10-21T10:21:35.017Z,821.77
2018-10-21T10:22:35.039Z,821.81
2018-10-21T10:23:35.155Z,821.80
2018-10-21T10:24:35.076Z,821.73
2018-10-21T10:25:35.098Z,821.74
2018-10-21T10:26:35.112Z,821.79
2018-10-21T10:27:35.132Z,821.75
2018-10-21T10:28:35.153Z,821.78
2018-10-21T10:29:35.168Z,821.78
2018-10-21T10:30:35.352Z,821.76
2018-10-21T10:31:35.207Z,821.76
2018-10-21T10:32:35.229Z,821.75
2018-10-21T10:33:35.248Z,821.79
2018-10-21T10:34:35.266Z,821.77
2018-10-21T10:35:35.284Z,821.77
2018-10-21T10:36:35.304Z,821.80
2018-10-21T10:37:35.325Z,821.80
2018-10-21T10:38:35.343Z,821.78
2018-10-21T10:39:35.363Z,821.83
2018-10-21T10:40:35.384Z,821.85
2018-10-21T10:41:35.488Z,821.78
2018-10-21T10:42:35.426Z,821.75
2018-10-21T10:43:35.440Z,821.74
2018-10-21T10:44:35.460Z,821.76
2018-10-21T10:45:35.483Z,821.69
2018-10-21T10:46:35.500Z,821.71
2018-10-21T10:47:35.522Z,821.67
2018-10-21T10:48:35.540Z,821.62
2018-10-21T10:49:35.564Z,821.63
2018-10-21T10:50:35.580Z,821.61
2018-10-21T10:51:35.604Z,821.63
2018-10-21T10:52:35.623Z,821.62
2018-10-21T10:53:35.643Z,821.60
2018-10-21T10:54:35.660Z,821.55
2018-10-21T10:55:35.684Z,821.58
2018-10-21T10:56:35.703Z,821.56
2018-10-21T10:57:35.723Z,821.58
2018-10-21T10:58:35.743Z,821.55
2018-10-21T10:59:35.802Z,821.57
2018-10-21T11:00:35.783Z,821.56
2018-10-21T11:01:35.807Z,821.56
2018-10-21T11:02:35.828Z,821.52
2018-10-21T11:03:35.846Z,821.51
2018-10-21T11:04:35.864Z,821.51
2018-10-21T11:05:35.885Z,821.51
2018-10-21T11:06:35.905Z,821.54
2018-10-21T11:07:35.926Z,821.49
2018-10-21T11:08:35.946Z,821.47
2018-10-21T11:09:35.968Z,821.43
2018-10-21T11:10:35.988Z,821.44
2018-10-21T11:11:36.009Z,821.34
2018-10-21T11:12:36.032Z,821.30
2018-10-21T11:13:36.051Z,821.26
2018-10-21T11:14:36.138Z,821.24
2018-10-21T11:15:36.094Z,821.26
2018-10-21T11:16:36.113Z,821.25
2018-10-21T11:17:36.134Z,821.30
2018-10-21T11:18:36.152Z,821.25
2018-10-21T11:19:36.175Z,821.26
2018-10-21T11:20:36.201Z,821.23
2018-10-21T11:21:36.230Z,821.25
2018-10-21T11:22:36.283Z,821.24
2018-10-21T11:23:36.256Z,821.19
2018-10-21T11:24:36.277Z,821.21
2018-10-21T11:25:36.297Z,821.19
2018-10-21T11:26:36.317Z,821.21
2018-10-21T11:27:36.339Z,821.21
2018-10-21T11:28:36.359Z,821.18
2018-10-21T11:29:36.379Z,821.17
2018-10-21T11:30:36.411Z,821.15
2018-10-21T11:31:36.421Z,821.12
2018-10-21T11:32:36.454Z,821.13
2018-10-21T11:33:36.464Z,821.10
2018-10-21T11:34:36.482Z,821.07
2018-10-21T11:35:36.506Z,821.07
2018-10-21T11:36:36.589Z,821.09
2018-10-21T11:37:36.615Z,821.08
2018-10-21T11:38:36.566Z,821.03
2018-10-21T11:39:36.588Z,821.00
2018-10-21T11:40:36.607Z,821.05
2018-10-21T11:41:36.628Z,821.00
2018-10-21T11:42:36.646Z,821.03
2018-10-21T11:43:36.669Z,821.04
2018-10-21T11:44:36.688Z,821.03
2018-10-21T11:45:36.770Z,821.04
2018-10-21T11:46:36.733Z,821.06
2018-10-21T11:47:36.751Z,821.04
2018-10-21T11:48:36.769Z,821.06
2018-10-21T11:49:36.794Z,821.03
2018-10-21T11:50:36.812Z,821.02
2018-10-21T11:51:36.833Z,820.95
2018-10-21T11:52:36.957Z,820.96
2018-10-21T11:53:36.874Z,820.93
2018-10-21T11:54:36.892Z,821.00
2018-10-21T11:55:36.915Z,821.01
2018-10-21T11:56:36.942Z,821.04
2018-10-21T11:57:36.958Z,821.02
2018-10-21T11:58:36.987Z,820.97
2018-10-21T11:59:36.998Z,820.96
2018-10-21T12:00:37.020Z,820.97
2018-10-21T12:01:37.042Z,821.00
2018-10-21T12:02:37.061Z,820.99
2018-10-21T12:03:37.082Z,820.94
2018-10-21T12:04:37.106Z,820.97
2018-10-21T12:05:37.125Z,820.97
2018-10-21T12:06:37.148Z,820.95
2018-10-21T12:07:37.171Z,820.95
2018-10-21T12:08:37.191Z,820.96
2018-10-21T12:09:37.213Z,820.94
2018-10-21T12:10:37.233Z,820.96
2018-10-21T12:11:37.255Z,820.93
2018-10-21T12:12:37.276Z,820.89
2018-10-21T12:13:37.298Z,820.89
2018-10-21T12:14:37.319Z,820.87
2018-10-21T12:15:37.341Z,820.90
2018-10-21T12:16:37.362Z,820.85
2018-10-21T12:17:37.387Z,820.79
2018-10-21T12:18:37.407Z,820.77
2018-10-21T12:19:37.430Z,820.79
2018-10-21T12:20:37.450Z,820.75
2018-10-21T12:21:37.471Z,820.77
2018-10-21T12:22:37.603Z,820.73
2018-10-21T12:23:37.520Z,820.71
2018-10-21T12:24:37.539Z,820.72
2018-10-21T12:25:37.681Z,820.71
2018-10-21T12:26:37.584Z,820.73
2018-10-21T12:27:37.608Z,820.71
2018-10-21T12:28:37.626Z,820.71